Time;durP1;ratioP1;P1;durP2;ratioP2;P2;SDS_P1;SDS_P2;PMS_P1;PMS_P2;Temp;Humidity;BMP_temperature;BMP_pressure;BME280_temperature;BME280_humidity;BME280_pressure;Samples;Min_cycle;Max_cycle;Signal;HPM_P1;HPM_P2
2021/05/28 00:01:30;;;;;;;7.63;2.40;;;10.40;96.00;;;;;;4955562;29;20083;-80
2021/05/28 00:03:56;;;;;;;7.60;2.47;;;10.40;96.00;;;;;;4956124;29;20027;-79
2021/05/28 00:06:22;;;;;;;4.38;2.30;;;10.30;96.00;;;;;;4939103;29;20038;-78
2021/05/28 00:08:48;;;;;;;7.53;2.67;;;10.30;95.90;;;;;;4954532;29;20475;-77
2021/05/28 00:11:13;;;;;;;5.30;2.63;;;10.30;95.90;;;;;;4955116;28;20447;-81
2021/05/28 00:13:39;;;;;;;5.63;2.50;;;10.30;95.90;;;;;;4955384;29;20387;-79
2021/05/28 00:16:05;;;;;;;5.22;2.60;;;10.30;96.00;;;;;;4956059;29;20039;-79
2021/05/28 00:18:30;;;;;;;8.50;3.10;;;10.30;96.00;;;;;;4956247;29;20468;-78
2021/05/28 00:20:56;;;;;;;5.85;2.60;;;10.30;95.90;;;;;;4954222;29;20385;-78
2021/05/28 00:23:22;;;;;;;10.10;3.35;;;10.20;95.90;;;;;;4954955;29;20028;-77
2021/05/28 00:25:48;;;;;;;5.45;2.65;;;10.20;95.90;;;;;;4953954;29;20341;-77
2021/05/28 00:28:13;;;;;;;7.00;3.03;;;10.20;96.00;;;;;;4954491;29;20031;-77
2021/05/28 00:30:39;;;;;;;7.32;3.25;;;10.20;96.00;;;;;;4955269;29;20047;-78
2021/05/28 00:33:05;;;;;;;9.43;3.00;;;10.20;96.00;;;;;;4954641;29;20027;-78
2021/05/28 00:35:31;;;;;;;8.20;3.20;;;10.20;96.00;;;;;;4955623;29;20347;-78
2021/05/28 00:37:56;;;;;;;6.90;3.33;;;10.20;95.90;;;;;;4955179;29;20027;-77
2021/05/28 00:40:22;;;;;;;9.98;3.70;;;10.10;95.90;;;;;;4954742;29;20047;-78
2021/05/28 00:42:48;;;;;;;7.10;3.42;;;10.20;95.90;;;;;;4953839;28;20023;-78
2021/05/28 00:45:14;;;;;;;9.23;3.33;;;10.10;95.90;;;;;;4954116;29;20024;-78
2021/05/28 00:47:41;;;;;;;7.10;3.13;;;10.10;95.90;;;;;;4953834;29;20027;-79
2021/05/28 00:50:07;;;;;;;9.70;4.07;;;10.10;95.80;;;;;;4938424;29;20035;-78
2021/05/28 00:52:33;;;;;;;9.27;3.72;;;10.10;95.80;;;;;;4953838;29;20016;-78
2021/05/28 00:54:59;;;;;;;11.43;3.65;;;10.10;95.90;;;;;;4955217;29;20463;-78
2021/05/28 00:57:28;;;;;;;7.45;3.72;;;10.10;95.90;;;;;;4954106;29;20110;-78
2021/05/28 00:59:56;;;;;;;14.48;4.32;;;10.10;95.90;;;;;;4954827;29;20015;-78
2021/05/28 01:02:23;;;;;;;11.02;4.00;;;10.10;95.90;;;;;;4955359;29;20031;-78
2021/05/28 01:04:49;;;;;;;7.70;3.88;;;10.00;95.90;;;;;;4953426;29;20475;-77
2021/05/28 01:07:14;;;;;;;12.13;4.53;;;10.00;95.90;;;;;;4954030;29;20032;-78
2021/05/28 01:09:40;;;;;;;8.43;4.05;;;10.00;95.90;;;;;;4937119;29;20047;-79
2021/05/28 01:12:06;;;;;;;10.40;4.32;;;10.00;95.90;;;;;;4954110;29;20032;-78
2021/05/28 01:14:32;;;;;;;6.82;3.90;;;10.00;96.00;;;;;;4953743;29;20456;-77
2021/05/28 01:16:58;;;;;;;7.70;4.00;;;10.00;96.00;;;;;;4953177;29;20063;-78
2021/05/28 01:19:25;;;;;;;9.25;3.78;;;10.00;96.00;;;;;;4954750;29;20383;-78
2021/05/28 01:21:52;;;;;;;7.53;3.50;;;10.00;96.00;;;;;;4954513;29;20099;-78
2021/05/28 01:24:18;;;;;;;10.40;4.43;;;10.00;96.00;;;;;;4953552;29;20031;-78
2021/05/28 01:26:43;;;;;;;7.80;4.30;;;10.00;96.00;;;;;;4954083;29;20559;-78
2021/05/28 01:29:09;;;;;;;8.70;3.50;;;10.00;96.00;;;;;;4955226;29;20054;-78
2021/05/28 01:31:35;;;;;;;6.40;3.53;;;10.10;96.00;;;;;;4956181;29;20491;-78
2021/05/28 01:34:02;;;;;;;9.50;3.92;;;10.10;95.90;;;;;;4953101;29;20035;-78
2021/05/28 01:36:28;;;;;;;9.80;4.43;;;10.20;95.80;;;;;;4937271;29;20090;-79
2021/05/28 01:38:54;;;;;;;13.13;4.32;;;10.20;95.70;;;;;;4952897;29;20119;-78
2021/05/28 01:41:20;;;;;;;11.48;4.75;;;10.30;95.80;;;;;;4954476;29;20055;-78
2021/05/28 01:43:46;;;;;;;10.45;4.25;;;10.30;95.70;;;;;;4954182;29;20383;-78
2021/05/28 01:46:11;;;;;;;11.02;4.78;;;10.30;95.70;;;;;;4954663;29;20031;-78
2021/05/28 01:48:40;;;;;;;10.52;4.70;;;10.30;95.60;;;;;;4953928;29;20027;-78
2021/05/28 01:51:07;;;;;;;8.88;4.50;;;10.30;95.60;;;;;;4953553;29;20114;-78
2021/05/28 01:53:33;;;;;;;12.73;4.35;;;10.30;95.60;;;;;;4936863;29;20365;-78
2021/05/28 01:55:58;;;;;;;9.73;4.50;;;10.30;95.60;;;;;;4937071;29;20358;-78
2021/05/28 01:58:26;;;;;;;10.13;4.97;;;10.30;95.70;;;;;;4953899;29;20028;-78
2021/05/28 02:00:56;;;;;;;9.40;4.18;;;10.20;95.70;;;;;;4953741;29;20027;-78
2021/05/28 02:03:22;;;;;;;8.95;4.50;;;10.30;95.80;;;;;;4954614;29;20042;-77
2021/05/28 02:05:48;;;;;;;12.52;5.20;;;10.30;95.70;;;;;;4936539;29;20102;-79
2021/05/28 02:08:15;;;;;;;10.45;5.45;;;10.30;95.70;;;;;;4954407;29;20467;-78
2021/05/28 02:10:42;;;;;;;10.15;4.82;;;10.30;95.60;;;;;;4953700;29;20106;-80
2021/05/28 02:13:08;;;;;;;9.27;4.75;;;10.30;95.50;;;;;;4954220;29;20034;-78
2021/05/28 02:15:34;;;;;;;11.65;5.32;;;10.30;95.50;;;;;;4954384;29;20428;-78
2021/05/28 02:18:00;;;;;;;12.10;5.22;;;10.30;95.40;;;;;;4952431;29;20123;-78
2021/05/28 02:20:25;;;;;;;11.18;5.07;;;10.30;95.40;;;;;;4954182;29;20471;-78
2021/05/28 02:22:52;;;;;;;11.40;5.25;;;10.30;95.40;;;;;;4953259;29;20054;-78
2021/05/28 02:25:18;;;;;;;11.32;5.32;;;10.40;95.40;;;;;;4952872;29;20106;-79
2021/05/28 02:27:44;;;;;;;10.95;5.45;;;10.40;95.30;;;;;;4952469;29;20105;-79
2021/05/28 02:30:12;;;;;;;11.82;5.55;;;10.40;95.20;;;;;;4952653;29;20027;-79
2021/05/28 02:32:38;;;;;;;11.85;5.25;;;10.50;95.20;;;;;;4952602;29;20027;-78
2021/05/28 02:35:06;;;;;;;11.55;5.35;;;10.50;95.20;;;;;;4953235;29;20027;-78
2021/05/28 02:37:33;;;;;;;12.32;5.05;;;10.40;95.20;;;;;;4952458;29;20472;-78
2021/05/28 02:39:59;;;;;;;11.18;5.20;;;10.40;95.20;;;;;;4952400;29;20091;-78
2021/05/28 02:42:25;;;;;;;11.10;5.45;;;10.40;95.20;;;;;;4954190;29;20136;-77
2021/05/28 02:44:53;;;;;;;9.85;5.13;;;10.40;95.20;;;;;;4953450;29;20083;-78
2021/05/28 02:47:20;;;;;;;10.63;5.10;;;10.40;95.20;;;;;;4954088;29;20042;-79
2021/05/28 02:49:47;;;;;;;11.50;4.93;;;10.40;95.10;;;;;;4954536;29;20024;-80
2021/05/28 02:52:12;;;;;;;12.05;4.88;;;10.30;95.10;;;;;;4937106;29;20091;-77
2021/05/28 02:54:38;;;;;;;11.30;5.30;;;10.30;95.20;;;;;;4953886;29;20031;-78
2021/05/28 02:57:04;;;;;;;9.73;5.07;;;10.30;95.20;;;;;;4953157;29;20397;-79
2021/05/28 02:59:30;;;;;;;11.55;5.38;;;10.20;95.20;;;;;;4952547;29;20027;-79
2021/05/28 03:01:55;;;;;;;10.10;5.00;;;10.20;95.30;;;;;;4953134;29;20055;-78
2021/05/28 03:04:21;;;;;;;10.43;5.32;;;10.20;95.20;;;;;;4952396;28;20019;-78
2021/05/28 03:06:46;;;;;;;11.30;5.18;;;10.20;95.20;;;;;;4955606;29;20038;-78
2021/05/28 03:09:12;;;;;;;8.52;4.95;;;10.20;95.20;;;;;;4940229;29;20042;-78
2021/05/28 03:11:38;;;;;;;10.80;5.75;;;10.20;95.20;;;;;;4957078;29;20416;-78
2021/05/28 03:14:04;;;;;;;9.98;4.88;;;10.20;95.20;;;;;;4955502;29;20020;-78
2021/05/28 03:16:32;;;;;;;10.68;5.25;;;10.10;95.30;;;;;;4957338;29;20113;-77
2021/05/28 03:19:01;;;;;;;11.95;5.10;;;10.10;95.30;;;;;;4956440;29;20491;-78
2021/05/28 03:23:56;;;;;;;12.48;5.55;;;10.20;95.30;;;;;;4956695;29;20118;-78
2021/05/28 03:26:23;;;;;;;12.48;5.78;;;10.10;95.30;;;;;;4957025;29;20114;-78
2021/05/28 03:28:49;;;;;;;12.70;5.53;;;10.20;95.30;;;;;;4955144;29;20110;-78
2021/05/28 03:31:15;;;;;;;10.10;5.40;;;10.20;95.30;;;;;;4955789;29;20030;-78
2021/05/28 03:33:41;;;;;;;10.45;5.88;;;10.20;95.20;;;;;;4955716;29;20114;-78
2021/05/28 03:36:07;;;;;;;10.07;4.38;;;10.20;95.20;;;;;;4955088;29;20490;-78
2021/05/28 03:38:33;;;;;;;10.32;5.00;;;10.30;95.10;;;;;;4956958;29;20032;-78
2021/05/28 03:40:59;;;;;;;10.32;5.57;;;10.20;95.10;;;;;;4954700;29;20464;-78
2021/05/28 03:43:25;;;;;;;10.68;5.63;;;10.20;95.00;;;;;;4955761;29;20043;-78
2021/05/28 03:45:51;;;;;;;11.45;5.00;;;10.30;95.00;;;;;;4954729;29;20032;-79
2021/05/28 03:48:17;;;;;;;12.32;6.10;;;10.20;95.00;;;;;;4956459;29;20035;-78
2021/05/28 03:50:42;;;;;;;11.70;6.00;;;10.20;95.00;;;;;;4938988;29;20043;-78
2021/05/28 03:53:08;;;;;;;10.85;5.30;;;10.30;95.00;;;;;;4955810;29;20038;-77
2021/05/28 03:55:34;;;;;;;11.73;5.43;;;10.30;94.90;;;;;;4956624;29;20042;-77
2021/05/28 03:57:59;;;;;;;12.52;5.15;;;10.20;94.90;;;;;;4956043;29;20031;-77
2021/05/28 04:00:26;;;;;;;12.55;5.07;;;10.30;94.90;;;;;;4955544;29;20046;-78
2021/05/28 04:02:53;;;;;;;12.63;5.32;;;10.30;94.80;;;;;;4955803;29;20019;-78
2021/05/28 04:05:19;;;;;;;12.60;5.30;;;10.30;94.80;;;;;;4956389;29;20030;-78
2021/05/28 04:07:46;;;;;;;14.70;5.65;;;10.40;94.70;;;;;;4940893;29;20032;-78
2021/05/28 04:10:12;;;;;;;12.65;5.97;;;10.40;94.70;;;;;;4955635;29;20395;-78
2021/05/28 04:12:38;;;;;;;11.25;5.35;;;10.40;94.70;;;;;;4955934;29;20059;-78
2021/05/28 04:15:05;;;;;;;15.48;5.82;;;10.40;94.70;;;;;;4954282;29;20031;-79
2021/05/28 04:17:31;;;;;;;14.13;6.55;;;10.50;94.70;;;;;;4954499;28;20027;-79
2021/05/28 04:19:56;;;;;;;13.45;5.88;;;10.40;94.70;;;;;;4954241;29;20023;-78
2021/05/28 04:22:22;;;;;;;13.80;6.18;;;10.50;94.70;;;;;;4956272;29;20114;-78
2021/05/28 04:24:48;;;;;;;14.15;6.13;;;10.50;94.70;;;;;;4955840;29;20054;-77
2021/05/28 04:27:13;;;;;;;12.68;6.47;;;10.50;94.60;;;;;;4954127;29;20023;-78
2021/05/28 04:29:39;;;;;;;14.68;5.85;;;10.50;94.60;;;;;;4956001;29;20054;-78
2021/05/28 04:32:05;;;;;;;16.67;7.10;;;10.60;94.60;;;;;;4955212;29;20027;-78
2021/05/28 04:34:33;;;;;;;13.10;6.07;;;10.60;94.50;;;;;;4955604;29;20050;-78
2021/05/28 04:36:59;;;;;;;13.70;7.20;;;10.60;94.50;;;;;;4953994;29;20055;-78
2021/05/28 04:39:26;;;;;;;14.15;7.07;;;10.60;94.50;;;;;;4953700;28;20070;-79
2021/05/28 04:41:53;;;;;;;12.60;5.68;;;10.60;94.50;;;;;;4953959;29;20040;-80
2021/05/28 04:44:19;;;;;;;11.93;5.45;;;10.60;94.60;;;;;;4938400;29;20416;-79
2021/05/28 04:46:44;;;;;;;15.70;6.22;;;10.70;94.70;;;;;;4955172;29;20031;-78
2021/05/28 04:49:10;;;;;;;14.02;6.05;;;10.70;94.60;;;;;;4955360;29;20055;-79
2021/05/28 04:51:35;;;;;;;11.00;5.80;;;10.60;94.60;;;;;;4955910;29;20031;-78
2021/05/28 04:54:01;;;;;;;11.00;5.30;;;10.60;94.60;;;;;;4954766;29;20024;-77
2021/05/28 04:56:27;;;;;;;13.73;5.55;;;10.60;94.60;;;;;;4954140;29;20130;-77
2021/05/28 04:58:53;;;;;;;11.65;5.70;;;10.60;94.50;;;;;;4954081;29;20034;-78
2021/05/28 05:01:18;;;;;;;11.60;4.53;;;10.60;94.60;;;;;;4955357;29;20031;-78
2021/05/28 05:03:44;;;;;;;12.43;5.70;;;10.60;94.60;;;;;;4954003;29;20098;-78
2021/05/28 05:06:10;;;;;;;10.18;5.20;;;10.60;94.60;;;;;;4953320;29;20042;-79
2021/05/28 05:08:36;;;;;;;10.10;5.13;;;10.60;94.50;;;;;;4953839;29;20436;-79
2021/05/28 05:11:03;;;;;;;8.00;4.40;;;10.50;94.20;;;;;;4954660;29;20503;-78
2021/05/28 05:13:28;;;;;;;10.60;5.45;;;10.50;94.30;;;;;;4937864;29;20079;-78
2021/05/28 05:15:54;;;;;;;11.70;4.85;;;10.50;94.30;;;;;;4954824;29;20027;-80
2021/05/28 05:18:20;;;;;;;9.93;5.18;;;10.50;94.30;;;;;;4955148;29;20024;-77
2021/05/28 05:20:46;;;;;;;10.32;4.68;;;10.50;94.40;;;;;;4955787;29;20100;-79
2021/05/28 05:23:11;;;;;;;9.05;4.38;;;10.50;94.40;;;;;;4954793;29;20462;-79
2021/05/28 05:25:38;;;;;;;9.88;4.28;;;10.50;94.30;;;;;;4956219;29;20027;-78
2021/05/28 05:28:04;;;;;;;11.10;4.57;;;10.50;94.30;;;;;;4954234;28;20058;-77
2021/05/28 05:30:30;;;;;;;9.30;4.68;;;10.60;94.30;;;;;;4955528;29;20060;-79
2021/05/28 05:32:55;;;;;;;11.23;5.00;;;10.60;94.20;;;;;;4953426;29;20144;-81
2021/05/28 05:35:21;;;;;;;10.77;5.03;;;10.70;94.20;;;;;;4953384;29;20039;-78
2021/05/28 05:37:47;;;;;;;11.60;5.18;;;10.80;94.10;;;;;;4953405;29;20066;-77
2021/05/28 05:40:13;;;;;;;10.52;4.80;;;10.80;93.90;;;;;;4952828;29;20110;-78
2021/05/28 05:42:40;;;;;;;10.95;4.85;;;10.90;93.80;;;;;;4953529;29;20031;-78
2021/05/28 05:45:08;;;;;;;11.05;5.30;;;11.00;93.70;;;;;;4953883;29;20034;-78
2021/05/28 05:47:34;;;;;;;10.95;5.20;;;11.10;93.70;;;;;;4953385;29;20027;-78
2021/05/28 05:50:00;;;;;;;11.00;4.90;;;11.10;93.60;;;;;;4949861;28;20027;-78
2021/05/28 05:52:27;;;;;;;12.52;5.05;;;11.10;93.60;;;;;;4944182;29;20103;-77
2021/05/28 05:54:53;;;;;;;10.27;4.78;;;11.20;93.60;;;;;;4933205;29;20024;-77
2021/05/28 05:57:18;;;;;;;10.73;5.30;;;11.20;93.50;;;;;;4932675;29;20127;-79
2021/05/28 05:59:44;;;;;;;9.85;5.07;;;11.20;93.50;;;;;;4949861;28;20034;-77
2021/05/28 06:02:10;;;;;;;10.98;5.28;;;11.20;93.40;;;;;;4934255;29;20066;-78
2021/05/28 06:04:35;;;;;;;10.73;5.50;;;11.30;93.30;;;;;;4934825;29;20532;-77
2021/05/28 06:07:01;;;;;;;9.77;5.82;;;11.30;93.20;;;;;;4925744;29;20039;-78
2021/05/28 06:09:27;;;;;;;10.05;5.43;;;11.40;93.10;;;;;;4952644;29;20027;-78
2021/05/28 06:11:54;;;;;;;10.82;5.28;;;11.50;93.00;;;;;;4936177;29;20043;-78
2021/05/28 06:14:20;;;;;;;9.30;4.97;;;11.50;92.90;;;;;;4951062;28;20484;-78
2021/05/28 06:16:45;;;;;;;12.35;5.28;;;11.40;92.90;;;;;;4953766;29;20027;-79
2021/05/28 06:19:11;;;;;;;11.20;6.20;;;11.40;93.00;;;;;;4940767;29;20112;-78
2021/05/28 06:21:37;;;;;;;13.02;5.78;;;11.30;93.10;;;;;;4917585;29;20078;-77
2021/05/28 06:24:03;;;;;;;11.05;5.43;;;11.40;93.20;;;;;;4953890;28;20115;-77
2021/05/28 06:26:29;;;;;;;11.73;5.72;;;11.40;93.10;;;;;;4949035;29;20471;-78
2021/05/28 06:28:54;;;;;;;12.85;5.70;;;11.50;93.10;;;;;;4953573;29;20031;-78
2021/05/28 06:31:20;;;;;;;11.30;5.72;;;11.50;93.00;;;;;;4953352;28;20016;-77
2021/05/28 06:33:46;;;;;;;12.23;5.75;;;11.60;93.00;;;;;;4936728;28;20431;-78
2021/05/28 06:36:11;;;;;;;10.20;5.47;;;11.60;92.90;;;;;;4972412;28;20038;-78
2021/05/28 06:38:38;;;;;;;11.82;5.38;;;11.70;92.80;;;;;;4955512;28;20376;-78
2021/05/28 06:41:04;;;;;;;10.73;5.43;;;11.70;92.70;;;;;;4938447;29;20443;-79
2021/05/28 06:43:31;;;;;;;10.60;5.30;;;11.80;92.70;;;;;;4940455;29;20468;-79
2021/05/28 06:45:56;;;;;;;10.63;6.00;;;11.80;92.60;;;;;;4957821;29;20423;-78
2021/05/28 06:48:22;;;;;;;11.27;6.15;;;11.90;92.50;;;;;;4955639;29;20023;-78
2021/05/28 06:50:48;;;;;;;10.85;5.75;;;12.00;92.40;;;;;;4956128;28;20051;-79
2021/05/28 06:53:13;;;;;;;10.15;5.32;;;12.00;92.20;;;;;;4956369;29;20028;-78
2021/05/28 06:55:39;;;;;;;10.25;5.05;;;12.00;92.20;;;;;;4955848;29;20035;-77
2021/05/28 06:58:05;;;;;;;10.50;6.40;;;11.90;92.20;;;;;;4955276;29;20123;-77
2021/05/28 07:00:31;;;;;;;9.73;5.28;;;11.80;92.40;;;;;;4955869;29;20033;-79
2021/05/28 07:02:57;;;;;;;11.63;5.85;;;11.70;92.50;;;;;;4955600;29;20106;-79
2021/05/28 07:05:24;;;;;;;12.60;6.60;;;11.70;92.70;;;;;;4955566;29;20034;-80
2021/05/28 07:07:51;;;;;;;13.25;6.13;;;11.70;92.70;;;;;;4939691;29;20121;-78
2021/05/28 07:10:17;;;;;;;11.00;6.05;;;11.60;92.70;;;;;;4954322;29;20023;-79
2021/05/28 07:12:43;;;;;;;12.18;6.45;;;11.60;92.80;;;;;;4939502;29;20054;-79
2021/05/28 07:15:09;;;;;;;13.45;6.03;;;11.50;92.90;;;;;;4956124;29;20171;-79
2021/05/28 07:17:35;;;;;;;10.15;5.72;;;11.60;92.90;;;;;;4957181;29;20055;-79
2021/05/28 07:20:02;;;;;;;14.05;6.10;;;11.50;93.00;;;;;;4956370;29;20060;-77
2021/05/28 07:22:28;;;;;;;14.82;6.75;;;11.50;93.10;;;;;;4956281;29;20038;-78
2021/05/28 07:24:53;;;;;;;10.15;5.80;;;11.60;93.10;;;;;;4972096;28;20031;-78
2021/05/28 07:27:19;;;;;;;15.10;6.45;;;11.60;93.10;;;;;;4945331;29;20023;-78
2021/05/28 07:29:46;;;;;;;12.48;5.88;;;11.60;93.10;;;;;;4956756;29;20146;-79
2021/05/28 07:32:11;;;;;;;11.85;5.88;;;11.60;93.10;;;;;;4922560;28;20396;-78
2021/05/28 07:34:38;;;;;;;12.38;5.88;;;11.60;93.10;;;;;;4944745;28;20109;-78
2021/05/28 07:37:04;;;;;;;11.57;5.80;;;11.50;93.10;;;;;;4957828;28;20182;-77
2021/05/28 07:39:30;;;;;;;18.50;6.93;;;11.60;93.20;;;;;;4956954;28;20031;-78
2021/05/28 07:41:56;;;;;;;11.75;6.32;;;11.60;93.20;;;;;;4940709;29;20031;-80
2021/05/28 07:44:22;;;;;;;13.38;6.13;;;11.60;93.10;;;;;;4940613;28;20027;-78
2021/05/28 07:46:48;;;;;;;10.80;5.55;;;11.60;93.10;;;;;;4938237;29;20039;-80
2021/05/28 07:49:15;;;;;;;9.02;5.35;;;11.70;93.10;;;;;;4939187;28;20494;-77
2021/05/28 07:51:41;;;;;;;12.82;6.43;;;11.70;93.10;;;;;;4938027;29;20027;-79
2021/05/28 07:54:08;;;;;;;15.35;6.78;;;11.70;93.00;;;;;;4938100;29;20027;-78
2021/05/28 07:56:35;;;;;;;16.70;7.35;;;11.80;93.00;;;;;;4936952;29;20126;-79
2021/05/28 07:59:02;;;;;;;15.25;6.90;;;11.80;93.00;;;;;;4957347;28;20494;-78
2021/05/28 08:01:28;;;;;;;15.60;6.57;;;11.80;92.90;;;;;;4941141;29;20532;-80
2021/05/28 08:03:56;;;;;;;14.60;7.13;;;11.90;93.00;;;;;;4942128;28;20028;-79
2021/05/28 08:06:22;;;;;;;13.43;7.57;;;11.90;92.90;;;;;;4955071;28;20102;-79
2021/05/28 08:08:47;;;;;;;14.93;7.30;;;11.90;92.90;;;;;;4956560;28;20467;-78
2021/05/28 08:11:14;;;;;;;11.95;6.55;;;11.90;92.90;;;;;;4957802;28;20121;-78
2021/05/28 08:13:39;;;;;;;15.02;7.05;;;12.00;92.80;;;;;;4958416;28;20043;-78
2021/05/28 08:16:05;;;;;;;12.63;6.75;;;12.00;92.70;;;;;;4954978;28;20352;-79
2021/05/28 08:18:31;;;;;;;12.73;6.95;;;12.00;92.70;;;;;;4954281;28;20066;-79
2021/05/28 08:20:57;;;;;;;15.90;6.60;;;12.10;92.60;;;;;;4955542;28;20034;-81
2021/05/28 08:23:23;;;;;;;14.32;6.30;;;12.10;92.60;;;;;;4953563;28;20023;-78
2021/05/28 08:25:49;;;;;;;12.68;5.82;;;12.10;92.60;;;;;;4944527;28;20026;-79
2021/05/28 08:28:16;;;;;;;10.55;6.00;;;12.20;92.50;;;;;;4936711;29;20090;-77
2021/05/28 08:30:42;;;;;;;11.98;6.25;;;12.20;92.50;;;;;;4937442;29;20035;-78
2021/05/28 08:33:13;;;;;;;8.10;5.30;;;12.20;92.50;;;;;;4925584;28;20039;-79
2021/05/28 08:35:43;;;;;;;9.30;5.43;;;12.30;92.50;;;;;;4955913;28;20065;-78
2021/05/28 08:38:09;;;;;;;11.88;6.20;;;12.40;92.50;;;;;;4955472;28;20471;-79
2021/05/28 08:40:35;;;;;;;11.18;5.43;;;12.40;92.40;;;;;;4965190;28;20498;-79
2021/05/28 08:43:02;;;;;;;9.85;5.20;;;12.40;92.40;;;;;;4939769;28;20341;-79
2021/05/28 08:45:35;;;;;;;11.13;5.50;;;12.50;92.30;;;;;;4938894;28;20045;-80
2021/05/28 08:48:02;;;;;;;10.63;4.93;;;12.60;92.30;;;;;;4954655;28;20459;-79
2021/05/28 08:50:28;;;;;;;11.77;4.95;;;12.60;92.20;;;;;;4938237;28;20468;-79
2021/05/28 08:52:54;;;;;;;10.32;5.20;;;12.70;92.10;;;;;;4965244;28;20106;-80
2021/05/28 08:55:20;;;;;;;14.10;5.22;;;12.70;92.10;;;;;;4956855;28;20027;-78
2021/05/28 08:57:45;;;;;;;11.30;5.75;;;12.80;92.10;;;;;;4944240;28;20015;-79
2021/05/28 09:00:12;;;;;;;11.85;5.05;;;12.80;92.00;;;;;;4941724;28;20086;-78
2021/05/28 09:02:39;;;;;;;11.85;5.72;;;12.90;92.00;;;;;;4940149;29;20074;-78
2021/05/28 09:05:06;;;;;;;12.45;5.75;;;12.90;91.80;;;;;;4961833;28;20059;-79
2021/05/28 09:07:32;;;;;;;9.38;5.20;;;12.90;91.80;;;;;;4938391;28;20059;-79
2021/05/28 09:09:58;;;;;;;11.07;5.38;;;13.00;91.70;;;;;;4960379;28;20027;-79
2021/05/28 09:12:28;;;;;;;12.75;6.22;;;13.10;91.70;;;;;;4941405;29;20501;-78
2021/05/28 09:14:54;;;;;;;12.50;5.72;;;13.10;91.60;;;;;;4936234;29;20520;-79
2021/05/28 09:17:20;;;;;;;8.52;4.85;;;13.20;91.40;;;;;;4923223;29;20388;-78
2021/05/28 09:19:57;;;;;;;9.20;4.32;;;13.20;91.30;;;;;;4940911;29;20038;-79
2021/05/28 09:22:38;;;;;;;8.65;4.50;;;13.20;91.10;;;;;;4923036;29;20048;-80
2021/05/28 09:25:04;;;;;;;8.38;4.10;;;13.20;90.90;;;;;;4932939;29;20083;-80
2021/05/28 09:27:33;;;;;;;8.38;4.50;;;13.20;90.80;;;;;;4915281;29;20563;-81
2021/05/28 09:29:59;;;;;;;10.35;4.38;;;13.20;90.70;;;;;;4916829;29;20024;-81
2021/05/28 09:32:25;;;;;;;8.73;3.88;;;13.30;90.60;;;;;;4903085;28;20054;-81
2021/05/28 09:34:51;;;;;;;9.43;4.00;;;13.30;90.40;;;;;;4927136;29;20023;-80
2021/05/28 09:37:17;;;;;;;8.93;4.28;;;13.40;90.30;;;;;;4926313;29;20078;-81
2021/05/28 09:39:43;;;;;;;10.10;5.18;;;13.50;89.20;;;;;;4945512;29;20028;-80
2021/05/28 09:42:08;;;;;;;8.63;4.40;;;13.50;89.20;;;;;;4944850;29;20027;-81
2021/05/28 09:44:35;;;;;;;6.22;3.92;;;13.60;89.30;;;;;;4944410;29;20027;-80
2021/05/28 09:47:14;;;;;;;9.00;4.00;;;13.60;88.90;;;;;;4929278;29;20499;-80
2021/05/28 09:49:49;;;;;;;5.28;2.75;;;13.70;89.00;;;;;;4932336;29;20454;-80
2021/05/28 09:52:18;;;;;;;7.35;2.65;;;13.70;88.90;;;;;;4927029;29;20023;-81
2021/05/28 09:55:00;;;;;;;4.20;2.30;;;13.70;87.60;;;;;;4927428;29;20030;-80
2021/05/28 09:57:28;;;;;;;6.05;2.40;;;13.70;86.30;;;;;;4929693;29;20026;-80
2021/05/28 09:59:54;;;;;;;3.60;1.95;;;13.70;85.10;;;;;;4930696;29;20027;-80
2021/05/28 10:02:43;;;;;;;3.95;2.05;;;13.80;84.80;;;;;;4946083;29;20031;-79
2021/05/28 10:05:09;;;;;;;3.13;1.80;;;13.90;84.20;;;;;;4930272;29;20035;-82
2021/05/28 10:07:37;;;;;;;3.85;1.67;;;14.00;83.40;;;;;;4928129;29;20059;-78
2021/05/28 10:10:04;;;;;;;5.18;2.60;;;14.00;82.70;;;;;;4930853;29;20023;-81
2021/05/28 10:12:29;;;;;;;3.03;1.58;;;14.00;82.60;;;;;;4940735;28;20046;-79
2021/05/28 10:14:55;;;;;;;6.97;2.25;;;14.10;82.70;;;;;;4950516;28;20090;-82
2021/05/28 10:17:21;;;;;;;10.25;2.42;;;14.10;83.10;;;;;;4965164;28;20486;-82
2021/05/28 10:19:48;;;;;;;5.05;2.10;;;14.20;82.10;;;;;;4960597;28;20031;-79
2021/05/28 10:22:17;;;;;;;6.07;2.47;;;14.30;81.50;;;;;;4946814;28;20027;-80
2021/05/28 10:24:43;;;;;;;4.65;2.38;;;14.40;80.80;;;;;;4947739;28;20432;-78
2021/05/28 10:27:09;;;;;;;3.30;1.70;;;14.50;80.00;;;;;;4964324;28;20031;-79
2021/05/28 10:29:35;;;;;;;2.35;1.13;;;14.60;78.80;;;;;;4948427;28;20442;-81
2021/05/28 10:32:09;;;;;;;1.85;1.20;;;14.60;78.20;;;;;;4957715;28;20055;-80
2021/05/28 10:34:54;;;;;;;2.05;1.30;;;14.60;76.90;;;;;;4933632;29;20215;-78
2021/05/28 10:37:30;;;;;;;2.85;1.90;;;14.50;76.10;;;;;;4948383;29;20147;-79
2021/05/28 10:39:56;;;;;;;2.88;1.63;;;14.60;76.20;;;;;;4941490;29;20027;-79
2021/05/28 10:42:22;;;;;;;4.28;1.92;;;14.60;76.00;;;;;;4948070;29;20031;-79
2021/05/28 10:44:48;;;;;;;5.03;2.15;;;14.60;75.00;;;;;;4950107;29;20487;-80
2021/05/28 10:47:14;;;;;;;5.35;2.08;;;14.60;75.00;;;;;;4934490;29;20035;-78
2021/05/28 10:49:50;;;;;;;4.30;1.98;;;14.60;75.00;;;;;;4933520;29;20079;-78
2021/05/28 10:52:30;;;;;;;4.82;2.00;;;14.70;75.50;;;;;;4951488;29;20062;-81
2021/05/28 10:54:59;;;;;;;3.25;1.70;;;14.90;76.00;;;;;;4934399;29;20038;-79
2021/05/28 10:57:43;;;;;;;5.38;2.47;;;14.90;76.20;;;;;;4933303;29;20451;-79
2021/05/28 11:00:10;;;;;;;3.85;2.53;;;15.00;76.30;;;;;;4951648;29;20031;-78
2021/05/28 11:02:47;;;;;;;6.13;2.92;;;15.10;76.40;;;;;;4933818;29;20088;-79
2021/05/28 11:05:15;;;;;;;4.47;2.65;;;15.20;76.20;;;;;;4951554;29;20051;-80
2021/05/28 11:07:46;;;;;;;5.00;2.45;;;15.30;75.60;;;;;;4943425;28;20037;-77
2021/05/28 11:10:20;;;;;;;4.18;2.40;;;15.40;75.40;;;;;;4938050;29;20533;-80
2021/05/28 11:12:45;;;;;;;3.25;1.90;;;15.50;74.10;;;;;;4933313;29;20062;-80
2021/05/28 11:15:32;;;;;;;4.15;2.00;;;15.60;73.70;;;;;;4940386;29;20043;-79
2021/05/28 11:18:03;;;;;;;4.00;1.88;;;15.70;72.80;;;;;;4931168;29;20114;-79
2021/05/28 11:20:34;;;;;;;3.63;1.92;;;15.90;73.20;;;;;;4945779;28;20028;-78
2021/05/28 11:23:06;;;;;;;4.82;2.20;;;16.10;73.40;;;;;;4949248;29;20529;-78
2021/05/28 11:25:32;;;;;;;5.35;2.67;;;16.30;73.30;;;;;;4935790;28;20129;-77
2021/05/28 11:28:06;;;;;;;3.90;1.67;;;16.50;73.00;;;;;;4938968;29;20079;-77
2021/05/28 11:30:44;;;;;;;3.83;1.95;;;16.70;72.70;;;;;;4939681;29;20024;-76
2021/05/28 11:33:32;;;;;;;3.45;1.60;;;17.00;71.20;;;;;;4956902;29;20420;-78
2021/05/28 11:35:58;;;;;;;4.35;1.90;;;17.10;70.80;;;;;;4956865;29;20031;-77
2021/05/28 11:38:32;;;;;;;4.53;2.13;;;17.20;70.70;;;;;;4954811;29;20025;-76
2021/05/28 11:40:58;;;;;;;5.28;2.10;;;17.40;69.90;;;;;;4939634;29;20031;-77
2021/05/28 11:43:23;;;;;;;3.95;1.80;;;17.50;69.40;;;;;;4955746;29;20040;-78
2021/05/28 11:45:50;;;;;;;3.30;1.60;;;17.60;69.60;;;;;;4956436;29;20039;-77
2021/05/28 11:48:21;;;;;;;3.20;1.73;;;17.80;70.00;;;;;;4939823;29;20059;-78
2021/05/28 11:50:52;;;;;;;3.28;1.73;;;18.00;70.20;;;;;;4939622;29;20023;-77
2021/05/28 11:53:18;;;;;;;2.58;1.20;;;18.20;70.20;;;;;;4942002;29;20085;-78
2021/05/28 11:55:45;;;;;;;2.67;1.30;;;18.40;70.10;;;;;;4956710;29;20432;-76
2021/05/28 11:58:13;;;;;;;1.52;1.20;;;18.50;69.20;;;;;;4939552;29;20434;-77
2021/05/28 12:00:40;;;;;;;4.38;1.30;;;18.70;68.80;;;;;;4955519;29;20057;-77
2021/05/28 12:03:06;;;;;;;5.25;1.75;;;18.90;67.80;;;;;;4939390;29;20050;-77
2021/05/28 12:05:39;;;;;;;2.70;1.50;;;19.00;67.80;;;;;;4938435;29;20389;-78
2021/05/28 12:08:11;;;;;;;1.90;1.38;;;19.10;67.60;;;;;;4939432;29;20410;-78
2021/05/28 12:10:42;;;;;;;2.42;1.50;;;19.30;66.20;;;;;;4938512;29;20031;-78
2021/05/28 12:13:15;;;;;;;4.80;1.38;;;19.30;66.20;;;;;;4938596;29;20055;-78
2021/05/28 12:15:47;;;;;;;2.88;1.33;;;19.30;64.80;;;;;;4939340;29;20042;-78
2021/05/28 12:18:23;;;;;;;3.08;1.48;;;19.40;63.10;;;;;;4939895;29;20089;-77
2021/05/28 12:20:57;;;;;;;2.75;1.20;;;19.40;63.60;;;;;;4938841;29;20031;-78
2021/05/28 12:23:25;;;;;;;2.90;1.35;;;19.50;62.80;;;;;;4939441;29;20032;-78
2021/05/28 12:25:57;;;;;;;4.78;1.40;;;19.60;62.60;;;;;;4939608;29;20499;-77
2021/05/28 12:28:28;;;;;;;1.83;1.30;;;19.80;62.80;;;;;;4938846;29;20031;-77
2021/05/28 12:30:59;;;;;;;2.15;1.08;;;19.90;62.70;;;;;;4955478;29;20019;-77
2021/05/28 12:33:35;;;;;;;3.97;1.47;;;20.10;62.70;;;;;;4955614;29;20027;-80
2021/05/28 12:36:06;;;;;;;3.40;1.40;;;20.20;60.60;;;;;;4938692;29;20042;-77
2021/05/28 12:38:46;;;;;;;2.13;1.38;;;20.30;59.80;;;;;;4937697;29;20114;-78
2021/05/28 12:41:18;;;;;;;3.30;1.20;;;20.30;59.60;;;;;;4955891;29;20027;-78
2021/05/28 12:43:44;;;;;;;2.97;1.17;;;20.40;59.80;;;;;;4955062;29;20384;-78